Jeffersonville, GA

8:17 PM EST on December 22, 2014 (GMT -0500)
Middle Georgia Regional | Change Station
CLOSE
Current Station
Airport
Location: Macon,
Elevation: 361 ft
Nearby Weather Stations

Elev 361 ft 32.68 °N, 83.65 °W | Updated 24 minutes ago

Overcast
Overcast
47 °F
Feels Like 47 °F
N
6
Wind Variable Wind from NE

Today
High -- | Low -- °F
--% Chance of Precip.
Yesterday
High -- | Low -- °F
Precip. -- in
7:31 AM 5:32 PM
New Moon, 1% visible
Pressure 29.95 in
Visibility 1.5 miles
Clouds Overcast 200 ft
Dew Point 47 °F
Humidity 100%
Rainfall 0.30 in
Snow Depth Not available.
UV 0 out of 12
Pollen 1.00 out of 12
Air Quality Not available.
Flu Activity Not available.
METAR KMCN 230053Z AUTO 05005KT 1 1/2SM BR OVC002 08/08 A2995 RMK AO2 SLP140 T00830083 TSNO

More Conditions Fewer Conditions

Pressure 29.95 in
Visibility 1.5 miles
Clouds Overcast 200 ft
Dew Point 47 °F
Humidity 100%
Rainfall 0.30 in
Snow Depth Not available.
UV 0 out of 12
Pollen 1.00 out of 12
Air Quality Not available.
Flu Activity Not available.
METAR KMCN 230053Z AUTO 05005KT 1 1/2SM BR OVC002 08/08 A2995 RMK AO2 SLP140 T00830083 TSNO

More Conditions Fewer Conditions

10-Day Weather Forecast

Almanac

Astronomy

Dec. 22, 2014 Rise Set
Actual Time
Civil Twilight
Nautical Twilight
Astronomical Twilight
Moon
Length of Visible Light
Length of Day
Tomorrow will be .
, % of the Moon is Illuminated

Today's Extremes

State Highs State Lows

Community

WunderPhotos

Upload Photos

1,779,745 photos uploaded!

WunderBlogs® & News

Nearby

Air Quality

  Air Quality AQ Index Pollutant
Not available.

Snow Depth

Station Depth Elevation

Earthquake Activity

City Distance Mag. Time & Date
Minimum magnitude displayed is 2.5.

Coastal Water Temperatures

Place Temperature

Nearby Weather Stations